Aspinwall, IA

7:09 PM CDT on April 01, 2015 (GMT -0500)
TempletonFF | | Change Station
CLOSE
Current Station
Personal Weather Station
Location: Templeton, IA
Elevation: 1385 ft
Nearby Weather Stations

Elev 1385 ft 41.87 °N, 94.90 °W | Updated 8 minutes ago

Clear
Clear
76.4 °F
Feels Like 78 °F
N
26.0
Wind Variable Wind from South
Gusts 34.0 mph

Today
High -- | Low -- °F
--% Chance of Precip.
Yesterday
High -- | Low -- °F
Precip. -- in
7:03 AM 7:45 PM
Waxing Gibbous, 94% visible
Pressure 29.53 in
Visibility 10.0 miles
Clouds Clear
Heat Index 78 °F
Dew Point 52 °F
Humidity 42%
Rainfall 0.00 in
Snow Depth Not available.
UV 1 out of 12
Pollen 9.20 out of 12
Air Quality Not available.
Flu Activity Not available.
METAR KDNS 012335Z AUTO 19021G32KT 10SM CLR 26/07 A2953 RMK AO2

More Conditions Fewer Conditions

Pressure 29.53 in
Visibility 10.0 miles
Clouds Clear
Heat Index 78 °F
Dew Point 52 °F
Humidity 42%
Rainfall 0.00 in
Snow Depth Not available.
UV 1 out of 12
Pollen 9.20 out of 12
Air Quality Not available.
Flu Activity Not available.
METAR KDNS 012335Z AUTO 19021G32KT 10SM CLR 26/07 A2953 RMK AO2

More Conditions Fewer Conditions

10-Day Weather Forecast

Almanac

Astronomy

Apr. 01, 2015 Rise Set
Actual Time
Civil Twilight
Nautical Twilight
Astronomical Twilight
Moon
Length of Visible Light
Length of Day
Tomorrow will be .
, % of the Moon is Illuminated

Today's Extremes

State Highs State Lows

Community

WunderPhotos

Upload Photos

1,810,130 photos uploaded!

WunderBlogs® & News

Nearby

Air Quality

  Air Quality AQ Index Pollutant
Not available.

Snow Depth

Station Depth Elevation

Earthquake Activity

City Distance Mag. Time & Date
Minimum magnitude displayed is 2.5.

Coastal Water Temperatures

Place Temperature

Stations

Nearby Weather Stations

Station Location Temp. Windchill Dew Point Humidity Wind Precip. Elev Updated Type
                   
Severe Thunderstorm Watch
Statement as of 7:03 PM CDT on April 01, 2015

Severe Thunderstorm Watch 15 remains in effect until 100 am CDT
for the following locations


IA
. Iowa counties included are

Audubon Buena Vista Calhoun
Carroll Cherokee Clay
Crawford Harrison Ida
Monona O'Brien Palo Alto
Plymouth Pocahontas Pottawattamie
SAC Shelby Sioux
Woodbury




Fire Weather Advisory
Statement as of 7:02 PM CDT on April 01, 2015

... Red flag warning has expired for extreme fire conditions... .

Southerly winds will remain gusty for the next few hours... but
overal have diminished some. Additionally... low relative humidity
values have climbed some into the 25 to 35 percent range and will
continue to climb to reach around 50 percent by mid evening. Thus
the red flag warning has been allowed to expire.


Mjb